createdAt,value
2023-02-21T00:00:00.896Z,47.55
2023-02-21T00:03:26.146Z,42.85
2023-02-21T00:06:49.162Z,54.13
2023-02-21T00:10:11.976Z,52.97
2023-02-21T00:13:34.819Z,43.88
2023-02-21T00:16:57.779Z,45.03
2023-02-21T00:20:20.594Z,37.83
2023-02-21T00:23:44.595Z,39.50
2023-02-21T00:27:07.385Z,25.83
2023-02-21T00:30:30.680Z,40.15
2023-02-21T00:33:57.099Z,44.85
2023-02-21T00:37:20.025Z,33.80
2023-02-21T00:40:44.325Z,41.58
2023-02-21T00:44:07.343Z,49.38
2023-02-21T00:47:30.246Z,54.17
2023-02-21T00:50:53.208Z,53.03
2023-02-21T00:54:16.372Z,39.42
2023-02-21T00:57:39.055Z,37.95
2023-02-21T01:01:02.232Z,45.33
2023-02-21T01:04:25.084Z,44.53
2023-02-21T01:07:47.979Z,40.78
2023-02-21T01:11:11.135Z,39.88
2023-02-21T01:14:35.100Z,43.25
2023-02-21T01:17:58.148Z,47.65
2023-02-21T01:21:20.933Z,43.88
2023-02-21T01:24:43.494Z,42.90
2023-02-21T01:28:06.359Z,36.15
2023-02-21T01:31:29.398Z,35.53
2023-02-21T01:34:52.167Z,45.28
2023-02-21T01:38:16.020Z,39.97
2023-02-21T01:41:39.984Z,50.20
2023-02-21T01:45:04.802Z,39.50
2023-02-21T01:52:00.800Z,35.15
2023-02-21T01:55:25.630Z,53.17
2023-02-21T01:58:51.618Z,47.05
2023-02-21T02:02:37.439Z,58.35
2023-02-21T02:06:04.841Z,43.25
2023-02-21T02:09:36.804Z,35.65
2023-02-21T02:13:11.917Z,32.95
2023-02-21T02:16:28.555Z,66.43
2023-02-21T02:19:48.716Z,41.08
2023-02-21T02:23:28.198Z,52.88
2023-02-21T02:26:55.860Z,34.83
2023-02-21T02:30:14.912Z,49.25
2023-02-21T02:33:45.561Z,36.17
2023-02-21T02:36:56.405Z,34.22
2023-02-21T02:40:09.511Z,35.25
2023-02-21T02:44:28.619Z,48.80
2023-02-21T02:47:41.898Z,37.03
2023-02-21T02:50:51.020Z,39.08
2023-02-21T02:53:58.897Z,42.67
2023-02-21T02:57:10.550Z,44.20
2023-02-21T03:00:16.613Z,47.28
2023-02-21T03:03:31.734Z,42.78
2023-02-21T03:06:55.443Z,45.05
2023-02-21T03:10:06.183Z,47.33
2023-02-21T03:13:37.567Z,44.53
2023-02-21T03:16:53.162Z,41.38
2023-02-21T03:23:04.252Z,45.03
2023-02-21T03:26:11.215Z,38.40
2023-02-21T03:29:20.841Z,36.10
2023-02-21T03:32:30.459Z,46.85
2023-02-21T03:35:35.463Z,35.67
2023-02-21T03:38:40.357Z,39.10
2023-02-21T03:41:45.124Z,40.67
2023-02-21T03:44:50.235Z,51.80
2023-02-21T03:47:54.729Z,42.58
2023-02-21T03:50:59.628Z,40.25
2023-02-21T03:54:08.518Z,36.20
2023-02-21T03:57:19.073Z,31.92
2023-02-21T04:00:25.542Z,42.17
2023-02-21T04:03:32.520Z,57.92
2023-02-21T04:06:41.142Z,44.97
2023-02-21T04:09:46.267Z,48.63
2023-02-21T04:12:54.329Z,50.90
2023-02-21T04:15:59.130Z,47.95
2023-02-21T04:19:03.649Z,47.87
2023-02-21T04:25:14.641Z,42.60
2023-02-21T04:28:25.896Z,55.42
2023-02-21T04:31:30.528Z,61.95
2023-02-21T04:34:36.942Z,42.88
2023-02-21T04:37:41.565Z,46.45
2023-02-21T04:40:47.337Z,45.90
2023-02-21T04:43:53.910Z,52.53
2023-02-21T04:46:58.742Z,46.63
2023-02-21T04:50:03.641Z,61.30
2023-02-21T04:53:07.658Z,52.33
2023-02-21T04:56:12.870Z,62.67
2023-02-21T05:02:21.152Z,46.42
2023-02-21T05:05:25.376Z,69.23
2023-02-21T05:08:29.749Z,53.67
2023-02-21T05:11:35.230Z,62.38
2023-02-21T05:14:39.973Z,46.15
2023-02-21T05:17:46.235Z,79.43
2023-02-21T05:20:50.648Z,56.63
2023-02-21T05:23:57.616Z,46.30
2023-02-21T05:27:01.832Z,61.45
2023-02-21T05:30:06.788Z,54.65
2023-02-21T05:33:11.037Z,43.17
2023-02-21T05:36:15.495Z,49.13
2023-02-21T05:39:19.941Z,32.25
2023-02-21T05:42:24.253Z,36.67
2023-02-21T05:45:28.771Z,54.72
2023-02-21T05:48:33.376Z,53.05
2023-02-21T05:51:41.192Z,66.07
2023-02-21T05:54:45.322Z,60.53
2023-02-21T05:57:49.968Z,47.28
2023-02-21T06:00:54.022Z,53.20
2023-02-21T06:03:58.737Z,47.42
2023-02-21T06:07:03.049Z,50.08
2023-02-21T06:10:07.758Z,40.55
2023-02-21T06:13:12.237Z,38.35
2023-02-21T06:16:16.496Z,51.63
2023-02-21T06:19:20.772Z,50.80
2023-02-21T06:22:25.171Z,49.63
2023-02-21T06:25:29.544Z,40.67
2023-02-21T06:28:33.935Z,61.33
2023-02-21T06:31:38.628Z,48.53
2023-02-21T06:34:44.732Z,58.08
2023-02-21T06:37:49.046Z,47.30
2023-02-21T06:40:53.451Z,57.20
2023-02-21T06:43:58.883Z,49.72
2023-02-21T06:47:03.459Z,50.83
2023-02-21T06:50:10.139Z,42.83
2023-02-21T06:53:15.218Z,48.05
2023-02-21T06:56:19.442Z,48.97
2023-02-21T06:59:23.809Z,45.95
2023-02-21T07:02:28.413Z,35.55
2023-02-21T07:05:37.653Z,50.13
2023-02-21T07:08:42.403Z,60.85
2023-02-21T07:11:47.241Z,47.00
2023-02-21T07:14:51.408Z,37.25
2023-02-21T07:17:55.799Z,39.75
2023-02-21T07:21:00.665Z,54.40
2023-02-21T07:24:05.326Z,46.53
2023-02-21T07:30:15.278Z,55.70
2023-02-21T07:33:19.845Z,46.15
2023-02-21T07:36:24.236Z,56.70
2023-02-21T07:39:28.569Z,60.22
2023-02-21T07:42:33.990Z,39.10
2023-02-21T07:45:38.598Z,46.65
2023-02-21T07:48:42.808Z,31.83
2023-02-21T07:51:47.135Z,36.50
2023-02-21T07:54:51.712Z,35.75
2023-02-21T07:57:55.938Z,42.13
2023-02-21T08:01:00.409Z,38.10
2023-02-21T08:04:04.752Z,42.03
2023-02-21T08:07:09.591Z,37.67
2023-02-21T08:10:19.735Z,40.03
2023-02-21T08:13:24.346Z,32.47
2023-02-21T08:16:28.862Z,42.13
2023-02-21T08:19:33.631Z,32.88
2023-02-21T08:22:38.167Z,33.10
2023-02-21T08:25:42.370Z,51.07
2023-02-21T08:28:46.698Z,35.38
2023-02-21T08:31:51.430Z,25.40
2023-02-21T08:34:55.921Z,43.47
2023-02-21T08:38:03.981Z,31.50
2023-02-21T08:41:10.414Z,37.00
2023-02-21T08:44:17.243Z,38.53
2023-02-21T08:47:21.608Z,41.92
2023-02-21T08:50:28.154Z,39.55
2023-02-21T08:53:32.532Z,38.22
2023-02-21T08:56:37.090Z,40.25
2023-02-21T08:59:43.183Z,29.67
2023-02-21T09:02:49.879Z,31.33
2023-02-21T09:05:54.411Z,33.50
2023-02-21T09:08:59.159Z,30.83
2023-02-21T09:12:03.875Z,29.58
2023-02-21T09:15:09.091Z,38.67
2023-02-21T09:18:13.726Z,37.75
2023-02-21T09:21:18.229Z,46.25
2023-02-21T09:24:25.352Z,33.60
2023-02-21T09:27:38.798Z,33.30
2023-02-21T09:30:43.564Z,36.95
2023-02-21T09:33:47.983Z,29.50
2023-02-21T09:36:52.684Z,30.77
2023-02-21T09:39:56.720Z,19.55
2023-02-21T09:43:03.138Z,24.05
2023-02-21T09:46:38.729Z,39.00
2023-02-21T09:49:45.193Z,26.92
2023-02-21T09:52:50.139Z,37.85
2023-02-21T09:56:01.078Z,32.30
2023-02-21T09:59:11.778Z,39.83
2023-02-21T10:02:31.543Z,27.48
2023-02-21T10:05:57.798Z,29.35
2023-02-21T10:09:25.358Z,37.67
2023-02-21T10:12:58.210Z,36.72
2023-02-21T10:16:21.438Z,25.92
2023-02-21T10:19:35.876Z,29.33
2023-02-21T10:22:43.558Z,27.92
2023-02-21T10:25:48.075Z,27.23
2023-02-21T10:28:56.664Z,35.17
2023-02-21T10:32:04.281Z,31.70
2023-02-21T10:35:08.891Z,30.90
2023-02-21T10:41:22.339Z,27.88
2023-02-21T10:44:31.944Z,24.17
2023-02-21T10:47:59.035Z,30.13
2023-02-21T10:51:11.484Z,25.08
2023-02-21T10:54:21.015Z,28.95
2023-02-21T10:57:26.957Z,26.40
2023-02-21T11:00:37.238Z,30.38
2023-02-21T11:03:47.074Z,30.55
2023-02-21T11:06:58.241Z,28.17
2023-02-21T11:10:02.882Z,18.13
2023-02-21T11:13:17.869Z,28.98
2023-02-21T11:19:26.620Z,25.35
2023-02-21T11:22:34.971Z,25.88
2023-02-21T11:25:40.430Z,23.42
2023-02-21T11:28:47.425Z,21.02
2023-02-21T11:31:53.478Z,25.23
2023-02-21T11:35:26.332Z,19.88
2023-02-21T11:38:37.516Z,32.60
2023-02-21T11:41:56.656Z,26.00
2023-02-21T11:45:24.082Z,19.83
2023-02-21T11:48:32.893Z,24.77
2023-02-21T11:51:47.116Z,19.67
2023-02-21T11:54:51.760Z,22.65
2023-02-21T11:58:19.154Z,21.15
2023-02-21T12:01:54.778Z,21.88
2023-02-21T12:05:20.871Z,16.98
2023-02-21T12:08:38.612Z,25.33
2023-02-21T12:12:10.953Z,22.35
2023-02-21T12:15:24.417Z,18.05
2023-02-21T12:18:52.561Z,20.02
2023-02-21T12:22:12.035Z,20.15
2023-02-21T12:25:20.506Z,19.15
2023-02-21T12:28:27.354Z,19.40
2023-02-21T12:31:55.887Z,17.15
2023-02-21T12:35:15.660Z,17.20
2023-02-21T12:38:48.504Z,15.45
2023-02-21T12:42:23.802Z,24.30
2023-02-21T12:45:56.209Z,19.60
2023-02-21T12:49:09.130Z,18.15
2023-02-21T12:52:23.573Z,12.90
2023-02-21T12:55:34.221Z,19.23
2023-02-21T12:59:20.648Z,17.95
2023-02-21T13:02:54.991Z,20.30
2023-02-21T13:06:04.868Z,18.83
2023-02-21T13:09:22.800Z,13.70
2023-02-21T13:12:33.136Z,15.65
2023-02-21T13:15:40.257Z,16.85
2023-02-21T13:18:59.388Z,17.77
2023-02-21T13:23:04.127Z,17.65
2023-02-21T13:26:23.545Z,14.95
2023-02-21T13:29:33.803Z,14.43
2023-02-21T13:32:40.468Z,14.10
2023-02-21T13:35:45.606Z,21.13
2023-02-21T13:39:08.795Z,10.50
2023-02-21T13:42:20.563Z,18.42
2023-02-21T13:45:26.536Z,21.52
2023-02-21T13:48:30.819Z,15.95
2023-02-21T13:51:53.110Z,20.50
2023-02-21T13:55:16.116Z,13.07
2023-02-21T13:58:20.809Z,21.20
2023-02-21T14:04:57.692Z,12.75
2023-02-21T14:08:08.705Z,15.73
2023-02-21T14:11:34.192Z,20.60
2023-02-21T14:14:39.889Z,12.55
2023-02-21T14:17:47.765Z,16.00
2023-02-21T14:20:55.266Z,19.65
2023-02-21T14:24:02.808Z,15.32
2023-02-21T14:30:25.632Z,18.75
2023-02-21T14:33:31.244Z,17.58
2023-02-21T14:36:37.906Z,14.05
2023-02-21T14:39:48.842Z,20.25
2023-02-21T14:43:06.941Z,15.63
2023-02-21T14:46:40.891Z,14.60
2023-02-21T14:50:09.050Z,9.93
2023-02-21T14:53:22.870Z,19.73
2023-02-21T14:56:39.477Z,15.98
2023-02-21T14:59:57.376Z,13.98
2023-02-21T15:03:14.944Z,11.32
2023-02-21T15:06:25.158Z,13.07
2023-02-21T15:09:29.903Z,13.45
2023-02-21T15:15:42.941Z,12.07
2023-02-21T15:19:00.149Z,13.23
2023-02-21T15:22:24.835Z,8.18
2023-02-21T15:25:29.463Z,14.20
2023-02-21T15:28:33.733Z,14.50
2023-02-21T15:31:54.671Z,6.85
2023-02-21T15:34:59.476Z,15.50
2023-02-21T15:41:23.469Z,14.55
2023-02-21T15:44:32.808Z,15.48
2023-02-21T15:47:37.886Z,13.82
2023-02-21T15:50:44.967Z,15.85
2023-02-21T15:54:29.926Z,15.63
2023-02-21T15:57:34.376Z,9.82
2023-02-21T16:00:49.360Z,11.48
2023-02-21T16:07:33.849Z,23.15
2023-02-21T16:10:41.253Z,12.88
2023-02-21T16:13:46.415Z,14.38
2023-02-21T16:20:01.348Z,11.68
2023-02-21T16:23:24.528Z,11.88
2023-02-21T16:26:28.794Z,16.17
2023-02-21T16:29:33.256Z,10.00
2023-02-21T16:32:46.428Z,17.48
2023-02-21T16:35:50.961Z,10.63
2023-02-21T16:38:56.937Z,10.90
2023-02-21T16:42:01.317Z,5.95
2023-02-21T16:45:05.993Z,13.32
2023-02-21T16:48:20.803Z,5.35
2023-02-21T16:51:25.027Z,9.43
2023-02-21T16:54:29.210Z,6.97
2023-02-21T16:57:33.776Z,13.70
2023-02-21T17:00:38.220Z,8.10
2023-02-21T17:03:42.753Z,6.82
2023-02-21T17:06:51.756Z,4.28
2023-02-21T17:09:56.304Z,3.92
2023-02-21T17:13:03.349Z,9.70
2023-02-21T17:16:08.085Z,7.35
2023-02-21T17:19:17.298Z,7.13
2023-02-21T17:22:21.688Z,3.90
2023-02-21T17:25:27.277Z,3.75
2023-02-21T17:28:31.713Z,7.40
2023-02-21T17:31:36.665Z,8.20
2023-02-21T17:34:42.167Z,4.15
2023-02-21T17:37:49.865Z,8.18
2023-02-21T17:40:54.573Z,3.88
2023-02-21T17:43:58.970Z,3.30
2023-02-21T17:47:07.345Z,1.08
2023-02-21T17:50:13.643Z,4.55
2023-02-21T17:53:18.047Z,2.17
2023-02-21T17:56:26.959Z,5.22
2023-02-21T17:59:31.195Z,5.85
2023-02-21T18:02:39.154Z,10.07
2023-02-21T18:05:44.020Z,3.60
2023-02-21T18:08:48.475Z,3.95
2023-02-21T18:11:54.565Z,4.83
2023-02-21T18:14:59.107Z,5.00
2023-02-21T18:18:07.112Z,3.85
2023-02-21T18:21:13.137Z,5.53
2023-02-21T18:24:18.798Z,2.42
2023-02-21T18:27:22.876Z,3.13
2023-02-21T18:30:27.428Z,4.30
2023-02-21T18:33:32.203Z,1.92
2023-02-21T18:36:40.691Z,3.35
2023-02-21T18:39:45.186Z,3.05
2023-02-21T18:42:49.481Z,2.47
2023-02-21T18:45:55.607Z,3.15
2023-02-21T18:49:00.259Z,3.35
2023-02-21T18:52:07.172Z,4.45
2023-02-21T18:55:12.605Z,5.03
2023-02-21T18:58:17.209Z,5.13
2023-02-21T19:01:22.777Z,7.73
2023-02-21T19:04:27.166Z,3.50
2023-02-21T19:07:36.559Z,7.70
2023-02-21T19:10:40.841Z,3.92
2023-02-21T19:13:50.216Z,1.80
2023-02-21T19:16:54.499Z,7.43
2023-02-21T19:19:59.193Z,7.22
2023-02-21T19:23:03.666Z,7.78
2023-02-21T19:26:08.639Z,10.55
2023-02-21T19:29:13.340Z,5.80
2023-02-21T19:32:19.123Z,5.80
2023-02-21T19:35:23.544Z,4.20
2023-02-21T19:38:27.909Z,5.90
2023-02-21T19:41:32.351Z,6.00
2023-02-21T19:44:37.489Z,6.30
2023-02-21T19:47:41.874Z,3.63
2023-02-21T19:50:46.837Z,5.78
2023-02-21T19:53:51.587Z,10.27
2023-02-21T19:56:57.268Z,7.68
2023-02-21T20:00:02.141Z,4.10
2023-02-21T20:03:06.906Z,2.65
2023-02-21T20:06:11.436Z,9.85
2023-02-21T20:09:16.176Z,4.43
2023-02-21T20:12:22.783Z,8.60
2023-02-21T20:15:27.088Z,5.65
2023-02-21T20:18:31.453Z,7.60
2023-02-21T20:21:35.831Z,6.75
2023-02-21T20:24:41.849Z,16.73
2023-02-21T20:27:45.814Z,9.05
2023-02-21T20:30:50.403Z,8.02
2023-02-21T20:33:55.445Z,4.43
2023-02-21T20:37:00.301Z,8.15
2023-02-21T20:40:06.151Z,4.88
2023-02-21T20:43:10.719Z,5.45
2023-02-21T20:46:21.241Z,10.73
2023-02-21T20:49:25.593Z,6.07
2023-02-21T20:52:29.876Z,8.02
2023-02-21T20:55:37.279Z,3.88
2023-02-21T20:58:41.986Z,4.45
2023-02-21T21:01:50.002Z,6.85
2023-02-21T21:04:54.506Z,6.45
2023-02-21T21:07:59.087Z,6.85
2023-02-21T21:11:03.913Z,7.38
2023-02-21T21:14:08.362Z,3.70
2023-02-21T21:17:17.689Z,6.15
2023-02-21T21:20:23.836Z,7.70
2023-02-21T21:23:28.168Z,5.05
2023-02-21T21:26:33.018Z,9.10
2023-02-21T21:29:38.522Z,5.18
2023-02-21T21:32:43.081Z,6.22
2023-02-21T21:35:48.780Z,4.37
2023-02-21T21:42:05.170Z,11.60
2023-02-21T21:45:18.422Z,10.02
2023-02-21T21:48:24.772Z,5.15
2023-02-21T21:51:29.120Z,9.43
2023-02-21T21:54:36.100Z,5.15
2023-02-21T21:57:41.924Z,6.05
2023-02-21T22:03:51.137Z,4.15
2023-02-21T22:06:56.603Z,1.95
2023-02-21T22:10:01.281Z,8.25
2023-02-21T22:13:13.483Z,6.28
2023-02-21T22:16:18.078Z,3.40
2023-02-21T22:19:24.285Z,5.07
2023-02-21T22:22:28.677Z,2.33
2023-02-21T22:25:36.818Z,6.83
2023-02-21T22:28:41.045Z,5.65
2023-02-21T22:31:47.482Z,4.63
2023-02-21T22:34:51.957Z,4.00
2023-02-21T22:37:58.114Z,3.93
2023-02-21T22:41:02.596Z,6.53
2023-02-21T22:44:07.317Z,4.72
2023-02-21T22:47:11.987Z,8.48
2023-02-21T22:50:20.192Z,2.30
2023-02-21T22:53:24.645Z,1.83
2023-02-21T22:56:29.793Z,2.72
2023-02-21T22:59:35.357Z,1.70
2023-02-21T23:02:39.851Z,1.75
2023-02-21T23:05:49.719Z,2.27
2023-02-21T23:08:54.149Z,5.68
2023-02-21T23:12:00.181Z,2.23
2023-02-21T23:15:05.319Z,1.35
2023-02-21T23:18:11.148Z,1.75
2023-02-21T23:21:22.902Z,2.03
2023-02-21T23:24:28.146Z,3.65
2023-02-21T23:27:33.848Z,1.35
2023-02-21T23:30:42.788Z,2.88
2023-02-21T23:33:53.425Z,1.17
2023-02-21T23:36:59.008Z,1.65
2023-02-21T23:40:03.418Z,3.75
2023-02-21T23:43:10.013Z,1.40
2023-02-21T23:46:24.062Z,3.83
2023-02-21T23:49:28.436Z,0.32
2023-02-21T23:52:32.956Z,0.30
2023-02-21T23:55:37.415Z,1.10
2023-02-21T23:58:45.494Z,2.95
